Wetterdaten: Woche 04.01.16 - 10.01.16 (KW1)
Datum Zeit Temp. A. Feuchte A. Luftdruck Regen Wind Richtung Taupunkt Windchill Windben
04.01.2016 00:00 -5,3 C 80 % 1008,5 hPa 0,0 l/m 2,3 km/h N -8,3 C -5,3 C 13,3 km/h
04.01.2016 01:00 -5,7 C 80 % 1007,3 hPa 0,0 l/m 3,6 km/h N -8,6 C -5,7 C 12,5 km/h
04.01.2016 02:00 -5,9 C 81 % 1006,4 hPa 0,0 l/m 3,7 km/h N -8,6 C -5,9 C 15,3 km/h
04.01.2016 03:00 -6,1 C 82 % 1004,6 hPa 0,0 l/m 5,0 km/h N -8,6 C -6,1 C 18,5 km/h
04.01.2016 04:00 -6,1 C 82 % 1003,2 hPa 0,0 l/m 5,9 km/h N -8,6 C -6,3 C 20,9 km/h
04.01.2016 05:00 -6,0 C 83 % 1002,7 hPa 0,0 l/m 4,8 km/h N -8,5 C -6,0 C 19,7 km/h
04.01.2016 06:00 -6,1 C 82 % 1002,4 hPa 0,0 l/m 4,6 km/h N -8,6 C -6,1 C 18,9 km/h
04.01.2016 07:00 -6,2 C 83 % 1001,9 hPa 0,0 l/m 4,9 km/h N -8,6 C -6,2 C 18,1 km/h
04.01.2016 08:00 -6,0 C 83 % 1001,8 hPa 0,0 l/m 5,3 km/h N -8,4 C -6,0 C 22,5 km/h
04.01.2016 09:00 -6,0 C 82 % 1001,7 hPa 0,0 l/m 4,0 km/h N -8,6 C -6,0 C 14,9 km/h
04.01.2016 10:00 -6,3 C 82 % 1001,7 hPa 0,0 l/m 4,4 km/h N -8,8 C -6,3 C 18,5 km/h
04.01.2016 11:00 -6,6 C 82 % 1001,0 hPa 0,0 l/m 4,1 km/h N -9,1 C -6,6 C 16,5 km/h
04.01.2016 12:00 -6,7 C 83 % 1000,6 hPa 0,0 l/m 3,5 km/h N -9,1 C -6,7 C 13,3 km/h
04.01.2016 13:00 -6,7 C 83 % 1000,2 hPa 0,0 l/m 3,4 km/h N -9,0 C -6,7 C 13,3 km/h
04.01.2016 14:00 -6,7 C 83 % 999,9 hPa 0,0 l/m 3,6 km/h N -9,1 C -6,7 C 16,1 km/h
04.01.2016 15:00 -6,7 C 83 % 999,9 hPa 0,0 l/m 2,9 km/h N -9,1 C -6,7 C 10,9 km/h
04.01.2016 16:00 -6,8 C 84 % 1000,0 hPa 0,0 l/m 1,4 km/h N -9,0 C -6,8 C 7,6 km/h
04.01.2016 17:00 -6,9 C 84 % 1000,3 hPa 0,0 l/m 0,9 km/h N -9,1 C -6,9 C 7,2 km/h
04.01.2016 18:00 -6,9 C 84 % 1000,3 hPa 0,0 l/m 0,2 km/h N -9,1 C -6,9 C 4,0 km/h
04.01.2016 19:00 -7,1 C 85 % 1000,5 hPa 0,0 l/m 0,1 km/h N -9,2 C -7,1 C 3,2 km/h
04.01.2016 20:00 -7,3 C 85 % 1000,6 hPa 0,0 l/m 0,3 km/h N -9,3 C -7,3 C 4,4 km/h
04.01.2016 21:00 -7,2 C 85 % 1000,8 hPa 0,0 l/m 0,2 km/h N -9,3 C -7,2 C 4,0 km/h
04.01.2016 22:00 -7,2 C 85 % 1001,1 hPa 0,0 l/m 0,0 km/h N -9,2 C -7,2 C 2,0 km/h
04.01.2016 23:00 -7,1 C 85 % 1001,5 hPa 0,0 l/m 0,3 km/h N -9,2 C -7,1 C 4,4 km/h
05.01.2016 00:00 -7,1 C 85 % 1001,4 hPa 0,0 l/m 0,0 km/h N -9,2 C -7,1 C 2,0 km/h
05.01.2016 01:00 -6,9 C 85 % 1001,1 hPa 0,0 l/m 1,3 km/h N -9,0 C -6,9 C 7,2 km/h
05.01.2016 02:00 -6,9 C 85 % 1001,4 hPa 0,0 l/m 0,3 km/h N -9,0 C -6,9 C 4,4 km/h
05.01.2016 03:00 -6,9 C 85 % 1001,4 hPa 0,0 l/m 0,3 km/h N -9,0 C -6,9 C 3,2 km/h
05.01.2016 04:00 -6,9 C 85 % 1001,2 hPa 0,0 l/m 0,0 km/h N -9,0 C -6,9 C 5,6 km/h
05.01.2016 05:00 -6,8 C 85 % 1001,1 hPa 0,0 l/m 0,0 km/h N -8,9 C -6,8 C 2,4 km/h
05.01.2016 06:00 -6,6 C 85 % 1001,1 hPa 0,0 l/m 0,0 km/h N -8,7 C -6,6 C 5,6 km/h
05.01.2016 07:00 -7,1 C 85 % 1001,2 hPa 0,0 l/m 0,8 km/h N -9,1 C -7,1 C 5,6 km/h
05.01.2016 08:00 -7,6 C 85 % 1001,7 hPa 0,0 l/m 0,0 km/h N -9,7 C -7,6 C 4,8 km/h
05.01.2016 09:00 -7,1 C 85 % 1001,8 hPa 0,0 l/m 1,6 km/h N -9,2 C -7,1 C 8,0 km/h
05.01.2016 10:00 -6,2 C 85 % 1002,6 hPa 0,0 l/m 0,8 km/h N -8,2 C -6,2 C 7,2 km/h
05.01.2016 11:00 -5,3 C 85 % 1002,5 hPa 0,0 l/m 0,0 km/h N -7,4 C -5,3 C 4,8 km/h
05.01.2016 12:00 -5,1 C 84 % 1002,4 hPa 0,0 l/m 0,8 km/h N -7,5 C -5,1 C 8,1 km/h
05.01.2016 13:00 -5,3 C 84 % 1002,5 hPa 0,0 l/m 0,0 km/h N -7,6 C -5,3 C 6,4 km/h
05.01.2016 14:00 -6,1 C 84 % 1002,7 hPa 0,0 l/m 0,0 km/h N -8,3 C -6,1 C 5,6 km/h
05.01.2016 15:00 -6,8 C 84 % 1003,3 hPa 0,0 l/m 0,0 km/h N -9,0 C -6,8 C 3,2 km/h
05.01.2016 16:00 -7,1 C 85 % 1004,4 hPa 0,0 l/m 0,0 km/h N -9,2 C -7,1 C 4,0 km/h
05.01.2016 17:00 -6,8 C 85 % 1004,8 hPa 0,0 l/m 0,0 km/h N -8,9 C -6,8 C 2,4 km/h
05.01.2016 18:00 -6,4 C 85 % 1004,9 hPa 0,0 l/m 0,0 km/h N -8,5 C -6,4 C 3,2 km/h
05.01.2016 19:00 -6,3 C 85 % 1005,0 hPa 0,0 l/m 0,0 km/h N -8,3 C -6,3 C 4,8 km/h
05.01.2016 20:00 -6,1 C 85 % 1005,5 hPa 0,0 l/m 0,8 km/h N -8,2 C -6,1 C 7,2 km/h
05.01.2016 21:00 -6,0 C 84 % 1005,7 hPa 0,0 l/m 0,0 km/h N -8,3 C -6,0 C 6,4 km/h
05.01.2016 22:00 -5,9 C 84 % 1006,0 hPa 0,0 l/m 0,8 km/h N -8,2 C -5,9 C 5,6 km/h
05.01.2016 23:00 -5,9 C 84 % 1006,0 hPa 0,0 l/m 0,0 km/h N -8,2 C -5,9 C 4,8 km/h
06.01.2016 00:00 -5,8 C 84 % 1005,8 hPa 0,0 l/m 0,0 km/h N -8,0 C -5,8 C 3,2 km/h
06.01.2016 01:00 -5,5 C 84 % 1005,8 hPa 0,0 l/m 0,0 km/h N -7,8 C -5,5 C 5,6 km/h
06.01.2016 02:00 -5,2 C 84 % 1005,8 hPa 0,0 l/m 1,6 km/h N -7,5 C -5,2 C 8,9 km/h
06.01.2016 03:00 -5,1 C 84 % 1006,2 hPa 0,0 l/m 0,0 km/h N -7,3 C -5,1 C 5,6 km/h
06.01.2016 04:00 -4,9 C 84 % 1006,0 hPa 0,0 l/m 0,8 km/h N -7,1 C -4,9 C 6,4 km/h
06.01.2016 05:00 -4,6 C 84 % 1005,8 hPa 0,0 l/m 1,6 km/h N -6,9 C -4,6 C 7,2 km/h
06.01.2016 06:00 -4,4 C 84 % 1006,1 hPa 0,0 l/m 0,0 km/h N -6,8 C -4,4 C 5,6 km/h
06.01.2016 07:00 -4,4 C 84 % 1005,8 hPa 0,0 l/m 0,0 km/h N -6,7 C -4,4 C 6,4 km/h
06.01.2016 08:00 -4,3 C 83 % 1006,0 hPa 0,0 l/m 0,0 km/h N -6,7 C -4,3 C 2,4 km/h
06.01.2016 09:00 -3,5 C 83 % 1006,3 hPa 0,0 l/m 0,0 km/h N -5,9 C -3,5 C 2,4 km/h
06.01.2016 10:00 -2,8 C 83 % 1006,0 hPa 0,0 l/m 0,0 km/h N -5,3 C -2,8 C 4,8 km/h
06.01.2016 11:00 -2,4 C 83 % 1005,7 hPa 0,0 l/m 0,0 km/h N -4,9 C -2,4 C 1,6 km/h
06.01.2016 12:00 -2,2 C 83 % 1005,1 hPa 0,0 l/m 0,0 km/h N -4,7 C -2,2 C 1,6 km/h
06.01.2016 13:00 -1,8 C 83 % 1004,7 hPa 0,0 l/m 0,0 km/h N -4,3 C -1,8 C 3,2 km/h
06.01.2016 14:00 -1,8 C 83 % 1004,5 hPa 0,0 l/m 0,0 km/h N -4,3 C -1,8 C 0,0 km/h
06.01.2016 15:00 -2,0 C 84 % 1004,5 hPa 0,0 l/m 0,0 km/h N -4,5 C -2,0 C 2,4 km/h
06.01.2016 16:00 -2,3 C 84 % 1004,6 hPa 0,0 l/m 0,0 km/h N -4,6 C -2,3 C 0,8 km/h
06.01.2016 17:00 -2,5 C 84 % 1004,4 hPa 0,0 l/m 0,0 km/h N -4,8 C -2,5 C 0,8 km/h
06.01.2016 18:00 -2,4 C 83 % 1004,2 hPa 0,0 l/m 0,8 km/h N -4,9 C -2,4 C 4,8 km/h
06.01.2016 19:00 -2,4 C 83 % 1004,0 hPa 0,0 l/m 1,6 km/h N -4,9 C -2,4 C 5,6 km/h
06.01.2016 20:00 -2,6 C 83 % 1004,2 hPa 0,0 l/m 1,7 km/h N -5,1 C -2,6 C 7,5 km/h
06.01.2016 21:00 -2,7 C 84 % 1004,1 hPa 0,0 l/m 4,1 km/h N -5,0 C -2,7 C 10,1 km/h
06.01.2016 22:00 -3,0 C 84 % 1003,8 hPa 0,0 l/m 2,5 km/h N -5,4 C -3,0 C 6,8 km/h
06.01.2016 23:00 -3,4 C 84 % 1003,1 hPa 0,0 l/m 0,4 km/h N -5,7 C -3,4 C 2,8 km/h
07.01.2016 00:00 -4,4 C 85 % 1002,8 hPa 0,0 l/m 0,0 km/h N -6,6 C -4,4 C 0,0 km/h
07.01.2016 01:00 -5,9 C 85 % 1003,0 hPa 0,0 l/m 0,0 km/h N -8,1 C -5,9 C 0,0 km/h
07.01.2016 02:00 -6,8 C 85 % 1003,5 hPa 0,0 l/m 0,2 km/h N -8,9 C -6,8 C 1,6 km/h
07.01.2016 03:00 -5,8 C 84 % 1003,3 hPa 0,0 l/m 0,0 km/h N -8,0 C -5,8 C 0,8 km/h
07.01.2016 04:00 -4,8 C 84 % 1003,3 hPa 0,0 l/m 0,0 km/h N -7,0 C -4,8 C 0,0 km/h
07.01.2016 05:00 -3,9 C 83 % 1003,6 hPa 0,0 l/m 0,3 km/h N -6,3 C -3,9 C 2,0 km/h
07.01.2016 06:00 -0,4 C 82 % 1003,6 hPa 0,0 l/m 3,0 km/h N -3,0 C -0,4 C 7,2 km/h
07.01.2016 07:00 0,4 C 83 % 1003,8 hPa 0,0 l/m 4,3 km/h N -2,1 C 0,4 C 9,3 km/h
07.01.2016 08:00 1,1 C 84 % 1004,0 hPa 0,0 l/m 5,1 km/h N -1,4 C 1,1 C 13,3 km/h
07.01.2016 09:00 1,7 C 84 % 1004,3 hPa 0,0 l/m 7,5 km/h N -0,7 C 0,7 C 16,9 km/h
07.01.2016 10:00 1,9 C 84 % 1004,5 hPa 0,0 l/m 6,4 km/h N -0,5 C 1,5 C 16,1 km/h
07.01.2016 11:00 2,4 C 84 % 1004,2 hPa 1,0 l/m 3,2 km/h N -0,0 C 2,4 C 7,6 km/h
07.01.2016 12:00 3,1 C 84 % 1003,9 hPa 1,3 l/m 0,2 km/h N 0,6 C 3,1 C 2,4 km/h
07.01.2016 13:00 2,6 C 83 % 1003,2 hPa 1,0 l/m 0,0 km/h N -0,0 C 2,6 C 0,4 km/h
07.01.2016 14:00 2,1 C 83 % 1002,9 hPa 0,5 l/m 0,0 km/h N -0,5 C 2,1 C 1,2 km/h
07.01.2016 15:00 1,6 C 83 % 1002,6 hPa 0,3 l/m 0,1 km/h N -1,0 C 1,6 C 0,8 km/h
07.01.2016 16:00 0,6 C 83 % 1002,4 hPa 0,0 l/m 0,0 km/h N -2,0 C 0,6 C 0,0 km/h
07.01.2016 17:00 -0,7 C 83 % 1002,3 hPa 0,0 l/m 0,0 km/h N -3,2 C -0,7 C 0,0 km/h
07.01.2016 18:00 -0,4 C 84 % 1002,5 hPa 0,0 l/m 0,0 km/h N -2,7 C -0,4 C 0,0 km/h
07.01.2016 19:00 0,2 C 84 % 1002,2 hPa 0,0 l/m 0,0 km/h N -2,2 C 0,2 C 0,4 km/h
07.01.2016 20:00 0,1 C 84 % 1002,2 hPa 0,0 l/m 0,1 km/h N -2,3 C 0,1 C 2,0 km/h
07.01.2016 21:00 -0,2 C 84 % 1002,2 hPa 0,0 l/m 0,2 km/h N -2,6 C -0,2 C 3,2 km/h
07.01.2016 22:00 -0,4 C 84 % 1002,7 hPa 0,0 l/m 0,0 km/h N -2,8 C -0,4 C 0,8 km/h
07.01.2016 23:00 -0,6 C 84 % 1003,1 hPa 0,0 l/m 0,0 km/h N -2,9 C -0,6 C 0,4 km/h
08.01.2016 00:00 -0,6 C 84 % 1003,3 hPa 0,0 l/m 0,0 km/h N -2,9 C -0,6 C 0,0 km/h
08.01.2016 01:00 -0,6 C 84 % 1003,7 hPa 0,0 l/m 0,0 km/h N -2,9 C -0,6 C 0,4 km/h
08.01.2016 02:00 -0,6 C 84 % 1004,1 hPa 0,0 l/m 0,0 km/h N -3,0 C -0,6 C 0,4 km/h
08.01.2016 03:00 -0,6 C 84 % 1004,9 hPa 0,0 l/m 0,2 km/h N -3,0 C -0,6 C 2,8 km/h
08.01.2016 04:00 -0,6 C 84 % 1005,7 hPa 0,0 l/m 0,7 km/h N -3,1 C -0,6 C 4,8 km/h
08.01.2016 05:00 -1,4 C 84 % 1006,1 hPa 0,0 l/m 0,6 km/h N -3,7 C -1,4 C 4,4 km/h
08.01.2016 06:00 -0,7 C 84 % 1006,5 hPa 0,0 l/m 1,1 km/h N -3,1 C -0,7 C 8,0 km/h
08.01.2016 07:00 -2,4 C 84 % 1006,8 hPa 0,0 l/m 0,1 km/h N -4,8 C -2,4 C 2,8 km/h
08.01.2016 08:00 3,0 C 81 % 1007,3 hPa 0,0 l/m 3,3 km/h N 0,1 C 3,0 C 14,5 km/h
08.01.2016 09:00 6,3 C 77 % 1008,0 hPa 0,8 l/m 10,3 km/h N 2,5 C 3,4 C 27,8 km/h
08.01.2016 10:00 7,0 C 72 % 1008,8 hPa 0,5 l/m 7,2 km/h N 2,3 C 6,4 C 26,5 km/h
08.01.2016 11:00 7,7 C 68 % 1008,7 hPa 0,3 l/m 6,4 km/h N 2,1 C 7,7 C 23,3 km/h
08.01.2016 12:00 8,8 C 59 % 1008,2 hPa 0,0 l/m 6,6 km/h N 1,1 C 8,6 C 19,9 km/h
08.01.2016 13:00 9,5 C 54 % 1007,9 hPa 0,0 l/m 8,0 km/h N 0,5 C 8,1 C 22,5 km/h
08.01.2016 14:00 9,8 C 52 % 1007,7 hPa 0,0 l/m 5,4 km/h N 0,5 C 9,5 C 18,1 km/h
08.01.2016 15:00 9,6 C 52 % 1007,9 hPa 0,0 l/m 2,7 km/h N 0,3 C 9,6 C 15,3 km/h
08.01.2016 16:00 7,3 C 57 % 1008,2 hPa 0,0 l/m 0,0 km/h N -0,8 C 7,3 C 0,0 km/h
08.01.2016 17:00 4,1 C 69 % 1008,7 hPa 0,0 l/m 0,0 km/h N -1,0 C 4,1 C 1,2 km/h
08.01.2016 18:00 2,9 C 75 % 1009,0 hPa 0,0 l/m 0,1 km/h N -1,0 C 2,9 C 0,8 km/h
08.01.2016 19:00 2,1 C 79 % 1009,1 hPa 0,0 l/m 0,0 km/h N -1,2 C 2,1 C 0,4 km/h
08.01.2016 20:00 1,0 C 80 % 1008,5 hPa 0,0 l/m 0,0 km/h N -2,0 C 1,0 C 0,0 km/h
08.01.2016 21:00 0,3 C 82 % 1008,4 hPa 0,0 l/m 0,0 km/h N -2,4 C 0,3 C 0,0 km/h
08.01.2016 22:00 -0,4 C 83 % 1008,2 hPa 0,0 l/m 0,0 km/h N -2,9 C -0,4 C 0,0 km/h
08.01.2016 23:00 -1,3 C 84 % 1007,8 hPa 0,0 l/m 0,0 km/h N -3,7 C -1,3 C 0,0 km/h
09.01.2016 00:00 -1,2 C 84 % 1007,7 hPa 0,0 l/m 0,1 km/h N -3,5 C -1,2 C 1,6 km/h
09.01.2016 01:00 -1,1 C 84 % 1007,6 hPa 0,0 l/m 0,2 km/h N -3,4 C -1,1 C 0,8 km/h
09.01.2016 02:00 -1,0 C 84 % 1007,4 hPa 0,0 l/m 0,0 km/h N -3,4 C -1,0 C 0,8 km/h
09.01.2016 03:00 -0,6 C 83 % 1007,4 hPa 0,0 l/m 0,2 km/h N -3,1 C -0,6 C 2,4 km/h
09.01.2016 04:00 -0,2 C 83 % 1007,5 hPa 0,0 l/m 0,1 km/h N -2,8 C -0,2 C 1,2 km/h
09.01.2016 05:00 0,2 C 83 % 1007,7 hPa 0,0 l/m 0,2 km/h N -2,4 C 0,2 C 1,6 km/h
09.01.2016 06:00 0,3 C 83 % 1007,4 hPa 0,0 l/m 0,0 km/h N -2,3 C 0,3 C 0,4 km/h
09.01.2016 07:00 0,5 C 83 % 1007,9 hPa 0,0 l/m 0,0 km/h N -2,2 C 0,5 C 0,0 km/h
09.01.2016 08:00 0,7 C 82 % 1008,3 hPa 0,0 l/m 0,0 km/h N -2,0 C 0,7 C 0,0 km/h
09.01.2016 09:00 0,9 C 82 % 1008,4 hPa 0,0 l/m 0,0 km/h N -1,8 C 0,9 C 0,0 km/h
09.01.2016 10:00 1,3 C 82 % 1008,7 hPa 0,0 l/m 0,2 km/h N -1,5 C 1,3 C 1,6 km/h
09.01.2016 11:00 1,3 C 82 % 1008,1 hPa 0,0 l/m 0,0 km/h N -1,4 C 1,3 C 1,2 km/h
09.01.2016 12:00 1,6 C 82 % 1007,8 hPa 0,0 l/m 0,0 km/h N -1,2 C 1,6 C 0,8 km/h
09.01.2016 13:00 1,5 C 82 % 1007,5 hPa 0,0 l/m 0,2 km/h N -1,2 C 1,5 C 4,0 km/h
09.01.2016 14:00 1,6 C 81 % 1007,2 hPa 0,0 l/m 0,1 km/h N -1,3 C 1,6 C 2,0 km/h
09.01.2016 15:00 1,6 C 81 % 1007,4 hPa 0,0 l/m 0,1 km/h N -1,3 C 1,6 C 2,0 km/h
09.01.2016 16:00 1,5 C 82 % 1007,6 hPa 0,0 l/m 0,0 km/h N -1,4 C 1,5 C 2,0 km/h
09.01.2016 17:00 1,3 C 82 % 1007,6 hPa 0,0 l/m 0,1 km/h N -1,5 C 1,3 C 2,4 km/h
09.01.2016 18:00 1,2 C 81 % 1007,5 hPa 0,3 l/m 0,1 km/h N -1,6 C 1,2 C 1,6 km/h
09.01.2016 19:00 1,0 C 81 % 1007,5 hPa 0,3 l/m 0,0 km/h N -1,9 C 1,0 C 1,2 km/h
09.01.2016 20:00 0,9 C 81 % 1007,3 hPa 0,5 l/m 0,0 km/h N -2,0 C 0,9 C 0,4 km/h
09.01.2016 21:00 0,9 C 81 % 1007,0 hPa 0,0 l/m 0,0 km/h N -2,0 C 0,9 C 0,8 km/h
09.01.2016 22:00 1,0 C 81 % 1006,6 hPa 0,3 l/m 0,0 km/h N -1,9 C 1,0 C 0,8 km/h
09.01.2016 23:00 0,9 C 81 % 1006,3 hPa 0,3 l/m 0,0 km/h N -2,0 C 0,9 C 0,4 km/h
10.01.2016 00:00 0,8 C 81 % 1005,8 hPa 0,3 l/m 0,0 km/h N -2,1 C 0,8 C 0,0 km/h
10.01.2016 01:00 0,8 C 81 % 1005,1 hPa 0,5 l/m 0,0 km/h N -2,1 C 0,8 C 0,0 km/h
10.01.2016 02:00 0,7 C 81 % 1004,5 hPa 0,0 l/m 0,0 km/h N -2,2 C 0,7 C 0,0 km/h
10.01.2016 03:00 0,7 C 81 % 1004,1 hPa 0,8 l/m 0,0 km/h N -2,2 C 0,7 C 0,0 km/h
10.01.2016 04:00 0,7 C 81 % 1003,7 hPa 1,3 l/m 0,0 km/h N -2,2 C 0,7 C 0,0 km/h
10.01.2016 05:00 0,8 C 81 % 1003,4 hPa 1,0 l/m 0,0 km/h N -2,1 C 0,8 C 0,0 km/h
10.01.2016 06:00 0,7 C 81 % 1003,0 hPa 0,3 l/m 0,0 km/h N -2,2 C 0,7 C 0,0 km/h
10.01.2016 07:00 0,5 C 81 % 1002,9 hPa 0,3 l/m 0,0 km/h N -2,4 C 0,5 C 0,0 km/h
10.01.2016 08:00 0,7 C 81 % 1003,0 hPa 0,0 l/m 0,0 km/h N -2,2 C 0,7 C 0,0 km/h
10.01.2016 09:00 1,3 C 81 % 1003,2 hPa 0,0 l/m 0,0 km/h N -1,6 C 1,3 C 0,0 km/h
10.01.2016 10:00 2,2 C 80 % 1003,0 hPa 0,0 l/m 0,1 km/h N -0,9 C 2,2 C 2,0 km/h
10.01.2016 11:00 3,0 C 80 % 1002,1 hPa 0,0 l/m 0,3 km/h N -0,1 C 3,0 C 4,0 km/h
10.01.2016 12:00 3,3 C 80 % 1001,8 hPa 0,0 l/m 0,3 km/h N 0,1 C 3,3 C 4,0 km/h
10.01.2016 13:00 3,7 C 80 % 1001,9 hPa 0,0 l/m 0,2 km/h N 0,6 C 3,7 C 3,2 km/h
10.01.2016 14:00 4,3 C 80 % 1001,8 hPa 0,0 l/m 0,3 km/h N 1,2 C 4,3 C 3,2 km/h
10.01.2016 15:00 4,2 C 80 % 1002,2 hPa 0,0 l/m 0,0 km/h N 1,0 C 4,2 C 1,2 km/h
10.01.2016 16:00 3,5 C 81 % 1002,6 hPa 0,0 l/m 0,0 km/h N 0,5 C 3,5 C 1,6 km/h
10.01.2016 17:00 2,8 C 81 % 1003,0 hPa 0,0 l/m 0,1 km/h N -0,1 C 2,8 C 1,6 km/h
10.01.2016 18:00 2,2 C 81 % 1003,0 hPa 0,0 l/m 0,2 km/h N -0,7 C 2,2 C 1,6 km/h
10.01.2016 19:00 1,9 C 81 % 1002,8 hPa 0,0 l/m 0,0 km/h N -1,0 C 1,9 C 1,2 km/h
10.01.2016 20:00 2,1 C 81 % 1002,2 hPa 0,0 l/m 0,1 km/h N -0,8 C 2,1 C 2,8 km/h
10.01.2016 21:00 2,3 C 81 % 1001,8 hPa 0,0 l/m 0,2 km/h N -0,6 C 2,3 C 4,0 km/h
10.01.2016 22:00 2,0 C 81 % 1001,5 hPa 0,0 l/m 0,7 km/h N -0,9 C 2,0 C 4,8 km/h
10.01.2016 23:00 1,7 C 81 % 1001,3 hPa 0,0 l/m 0,6 km/h N -1,2 C 1,7 C 5,2 km/h
Min-Datum _ 05.01.16 08.01.16 04.01.16 - 04.01.16 - 05.01.16 05.01.16 04.01.16
_ Min-Zeit 08:30 14:30 14:00 - 19:15 - 08:00 08:00 22:15
Minimum _ -7,7 C 51 % 999,9 hPa - 0,0 km/h - -9,7 C -7,6 C 0,0 km/h
Max-Datum _ 08.01.16 04.01.16 08.01.16 07.01.16 08.01.16 - 08.01.16 08.01.16 08.01.16
_ Max-Zeit 15:00 18:15 19:00 12:15 09:30 - 09:15 15:00 09:15
Maximum _ 10,0 C 85 % 1009,2 hPa 1,3 l/m 11,9 km/h
N
- 2,8 C 10,0 C 30,6 km/h
N
Durchschnitt _ -1,6 C 82 % 1004,4 hPa #11,7 l/m 1,1 km/h N -4,4 C -1,7 C 5,2 km/h